Riverdale, North Dakota
Current Conditions -  °F | °C
As of 12:55 PM on Friday 31 Oct 2014 (Local Time) from KHZE Reporting Station
Clear Clear  
Wind Chill: 20°   Ceiling: Unl
Heat Index: 32°   Visibility: 10mi
Dew Point: 21°   Wind: 21mph
Humidity: 64%   Direction: 160°SSE
Pressure: 30.36"   Gusts: 31mph
Location:  47.5°N, 101.37°W
Report Text: KHZE 311755Z AUTO 16018G27KT 10SM CLR 00/M06 A3036 RMK AO2
Loading
Personal Weather Stations






























Interactive Weather Map New forecast layout! Learn more

10-Day Weather Forecast

Advertisements
Track Severe Weather on mobile